Time;durP1;ratioP1;P1;durP2;ratioP2;P2;SDS_P1;SDS_P2;PMS_P1;PMS_P2;Temp;Humidity;BMP_temperature;BMP_pressure;BME280_temperature;BME280_humidity;BME280_pressure;Samples;Min_cycle;Max_cycle;Signal;HPM_P1;HPM_P2
2022/10/16 00:01:25;;;;;;;7.13;4.47;;;13.80;99.90;;;;;;5114102;27;20482;-68
2022/10/16 00:03:52;;;;;;;5.10;4.70;;;13.80;99.90;;;;;;5116725;27;20453;-68
2022/10/16 00:06:21;;;;;;;4.80;4.60;;;13.80;99.90;;;;;;5117573;27;20477;-69
2022/10/16 00:08:48;;;;;;;4.47;4.27;;;13.70;99.90;;;;;;5115293;27;20460;-68
2022/10/16 00:11:17;;;;;;;4.57;4.37;;;13.70;99.90;;;;;;5115507;27;20471;-67
2022/10/16 00:13:46;;;;;;;4.97;4.50;;;13.70;99.90;;;;;;5114200;27;20457;-67
2022/10/16 00:16:14;;;;;;;6.47;4.60;;;13.80;99.90;;;;;;5114337;27;20472;-67
2022/10/16 00:18:42;;;;;;;4.60;4.30;;;13.80;99.90;;;;;;5119793;27;20472;-69
2022/10/16 00:21:11;;;;;;;4.80;4.40;;;13.80;99.90;;;;;;5117409;27;20713;-69
2022/10/16 00:23:39;;;;;;;4.67;4.43;;;13.80;99.90;;;;;;5117504;27;20903;-68
2022/10/16 00:26:09;;;;;;;5.90;4.90;;;13.80;99.90;;;;;;5114810;27;20477;-68
2022/10/16 00:31:22;;;;;;;5.03;4.83;;;13.80;99.90;;;;;;5109124;27;20456;-68
2022/10/16 00:33:49;;;;;;;5.37;5.03;;;13.70;99.90;;;;;;5115931;27;20818;-67
2022/10/16 00:36:19;;;;;;;5.33;4.93;;;13.70;99.90;;;;;;5115614;27;20553;-67
2022/10/16 00:38:47;;;;;;;5.80;5.30;;;13.70;99.90;;;;;;5111903;27;20475;-67
2022/10/16 00:41:16;;;;;;;10.83;5.20;;;13.60;99.90;;;;;;5109862;27;21147;-67
2022/10/16 00:43:45;;;;;;;5.53;5.17;;;13.60;99.90;;;;;;5116023;27;20466;-67
2022/10/16 00:46:18;;;;;;;5.07;4.67;;;13.60;99.90;;;;;;5109731;27;20488;-69
2022/10/16 00:48:51;;;;;;;7.10;5.53;;;13.60;99.90;;;;;;5116356;27;20616;-68
2022/10/16 00:51:22;;;;;;;4.63;4.33;;;13.60;99.90;;;;;;5111848;27;20457;-67
2022/10/16 00:53:50;;;;;;;4.87;4.57;;;13.60;99.90;;;;;;5109562;27;20469;-68
2022/10/16 00:56:17;;;;;;;5.50;5.00;;;13.60;99.90;;;;;;5113914;27;21110;-69
2022/10/16 00:58:44;;;;;;;5.03;4.63;;;13.60;99.90;;;;;;5110354;27;20449;-68
2022/10/16 01:01:11;;;;;;;7.20;4.90;;;13.50;99.90;;;;;;5111233;27;20943;-68
2022/10/16 01:03:38;;;;;;;5.73;5.37;;;13.50;99.90;;;;;;5112599;27;20464;-68
2022/10/16 01:06:18;;;;;;;5.63;5.23;;;13.40;99.90;;;;;;5115341;27;20847;-67
2022/10/16 01:08:54;;;;;;;6.83;5.57;;;13.40;99.90;;;;;;5110674;27;20457;-68
2022/10/16 01:11:26;;;;;;;7.50;6.17;;;13.40;99.90;;;;;;5111051;27;20879;-68
2022/10/16 01:13:56;;;;;;;6.10;5.60;;;13.40;99.90;;;;;;5111677;27;20556;-68
2022/10/16 01:16:30;;;;;;;5.90;5.50;;;13.40;99.90;;;;;;5112609;27;20485;-68
2022/10/16 01:19:03;;;;;;;6.00;5.60;;;13.40;99.90;;;;;;5118017;27;20829;-68
2022/10/16 01:21:37;;;;;;;6.40;5.17;;;13.40;99.90;;;;;;5112914;27;20453;-67
2022/10/16 01:24:12;;;;;;;5.30;4.90;;;13.40;99.90;;;;;;5115672;27;21007;-69
2022/10/16 01:26:53;;;;;;;5.57;5.00;;;13.40;99.90;;;;;;5114827;27;20483;-68
2022/10/16 01:29:29;;;;;;;6.23;5.23;;;13.40;99.90;;;;;;5104831;27;20468;-68
2022/10/16 01:32:03;;;;;;;5.20;4.60;;;13.40;99.90;;;;;;5111939;27;20827;-67
2022/10/16 01:34:34;;;;;;;6.83;4.50;;;13.50;99.90;;;;;;5105769;27;20830;-68
2022/10/16 01:37:06;;;;;;;5.77;4.63;;;13.50;99.90;;;;;;5115293;27;20538;-68
2022/10/16 01:39:37;;;;;;;5.03;4.73;;;13.50;99.90;;;;;;5106361;27;20522;-67
2022/10/16 01:42:07;;;;;;;5.27;4.87;;;13.60;99.90;;;;;;5112728;27;20464;-68
2022/10/16 01:44:37;;;;;;;6.00;4.73;;;13.60;99.90;;;;;;5106450;27;20459;-67
2022/10/16 01:47:06;;;;;;;7.90;4.77;;;13.60;99.90;;;;;;5115868;27;20976;-68
2022/10/16 01:49:35;;;;;;;6.77;5.03;;;13.60;99.90;;;;;;5110059;27;20535;-68
2022/10/16 01:52:06;;;;;;;10.20;6.00;;;13.60;99.90;;;;;;5113424;27;20959;-68
2022/10/16 01:54:37;;;;;;;8.87;4.90;;;13.60;99.90;;;;;;5114414;27;20461;-68
2022/10/16 01:57:07;;;;;;;11.20;4.57;;;13.60;99.90;;;;;;5115430;27;20464;-66
2022/10/16 01:59:39;;;;;;;5.90;5.50;;;13.60;99.90;;;;;;5112760;27;20469;-66
2022/10/16 02:02:10;;;;;;;5.50;5.13;;;13.60;99.90;;;;;;5115455;27;20742;-68
2022/10/16 02:04:39;;;;;;;5.70;5.20;;;13.60;99.90;;;;;;5111197;27;20959;-67
2022/10/16 02:07:06;;;;;;;5.47;4.97;;;13.60;99.90;;;;;;5112675;27;20484;-68
2022/10/16 02:09:35;;;;;;;5.50;5.10;;;13.60;99.90;;;;;;5115280;27;20502;-67
2022/10/16 02:12:08;;;;;;;6.67;5.43;;;13.60;99.90;;;;;;5111686;27;20862;-67
2022/10/16 02:14:39;;;;;;;8.90;4.80;;;13.60;99.90;;;;;;5111136;27;20460;-69
2022/10/16 02:17:12;;;;;;;5.37;5.07;;;13.60;99.90;;;;;;5108551;27;20523;-68
2022/10/16 02:19:39;;;;;;;5.70;5.20;;;13.60;99.90;;;;;;5111362;27;20824;-67
2022/10/16 02:22:09;;;;;;;5.23;4.93;;;13.60;99.90;;;;;;5114748;27;20543;-67
2022/10/16 02:24:43;;;;;;;5.43;4.63;;;13.70;99.90;;;;;;5115850;27;20485;-68
2022/10/16 02:27:15;;;;;;;5.57;5.00;;;13.60;99.90;;;;;;5112837;27;20489;-68
2022/10/16 02:29:48;;;;;;;5.80;5.30;;;13.70;99.90;;;;;;5112159;27;20473;-68
2022/10/16 02:32:18;;;;;;;5.57;5.17;;;13.60;99.90;;;;;;5106955;27;20676;-67
2022/10/16 02:34:46;;;;;;;5.17;4.80;;;13.70;99.90;;;;;;5110984;27;20457;-67
2022/10/16 02:37:13;;;;;;;6.73;5.40;;;13.60;99.90;;;;;;5114489;27;20480;-68
2022/10/16 02:39:41;;;;;;;5.97;5.47;;;13.60;99.90;;;;;;5108602;27;20465;-68
2022/10/16 02:42:12;;;;;;;6.00;5.50;;;13.60;99.90;;;;;;5108525;27;20495;-68
2022/10/16 02:44:38;;;;;;;7.10;5.90;;;13.60;99.90;;;;;;5109740;27;20465;-69
2022/10/16 02:47:08;;;;;;;5.87;5.37;;;13.50;99.90;;;;;;5108478;27;20477;-68
2022/10/16 02:49:35;;;;;;;5.97;5.57;;;13.40;99.90;;;;;;5113856;28;20603;-68
2022/10/16 02:52:03;;;;;;;6.47;6.13;;;13.40;99.90;;;;;;5110848;28;20495;-69
2022/10/16 02:54:30;;;;;;;8.20;5.80;;;13.30;99.90;;;;;;5115610;28;20471;-68
2022/10/16 02:56:57;;;;;;;6.30;5.90;;;13.20;99.90;;;;;;5111538;28;20468;-68
2022/10/16 02:59:23;;;;;;;6.63;5.70;;;13.10;99.90;;;;;;5109638;28;20457;-68
2022/10/16 03:01:50;;;;;;;8.00;6.03;;;13.10;99.90;;;;;;5109822;28;20472;-69
2022/10/16 03:04:18;;;;;;;7.87;5.50;;;13.10;99.90;;;;;;5110500;28;20819;-68
2022/10/16 03:06:45;;;;;;;6.00;5.60;;;13.00;99.90;;;;;;5109478;28;20468;-68
2022/10/16 03:09:12;;;;;;;5.87;5.50;;;13.00;99.90;;;;;;5115410;28;20463;-68
2022/10/16 03:11:38;;;;;;;6.20;5.67;;;13.00;99.90;;;;;;5106965;28;20603;-69
2022/10/16 03:14:05;;;;;;;9.53;5.57;;;13.00;99.90;;;;;;5111543;28;20456;-69
2022/10/16 03:16:32;;;;;;;5.90;5.40;;;13.00;99.90;;;;;;5109730;28;20468;-68
2022/10/16 03:18:59;;;;;;;5.53;5.23;;;13.00;99.90;;;;;;5113438;27;20483;-68
2022/10/16 03:21:28;;;;;;;5.83;5.43;;;13.00;99.90;;;;;;5115242;28;20457;-67
2022/10/16 03:23:55;;;;;;;9.23;5.50;;;12.90;99.90;;;;;;5112705;28;20481;-68
2022/10/16 03:26:21;;;;;;;5.67;5.17;;;13.00;99.90;;;;;;5108676;28;20468;-67
2022/10/16 03:28:49;;;;;;;5.73;5.23;;;12.90;99.90;;;;;;5110526;28;20753;-67
2022/10/16 03:31:17;;;;;;;7.03;5.40;;;12.90;99.90;;;;;;5109854;28;20452;-68
2022/10/16 03:33:43;;;;;;;5.73;5.33;;;12.90;99.90;;;;;;5113305;28;20465;-68
2022/10/16 03:36:11;;;;;;;5.97;5.60;;;12.90;99.90;;;;;;5110598;28;20463;-69
2022/10/16 03:38:39;;;;;;;6.13;5.50;;;12.80;99.90;;;;;;5114632;28;20479;-67
2022/10/16 03:41:07;;;;;;;6.80;6.40;;;12.80;99.90;;;;;;5109723;28;20463;-68
2022/10/16 03:43:34;;;;;;;6.47;6.17;;;12.70;99.90;;;;;;5112258;28;20652;-70
2022/10/16 03:46:02;;;;;;;6.50;6.03;;;12.60;99.90;;;;;;5110702;28;20964;-68
2022/10/16 03:48:30;;;;;;;7.00;6.30;;;12.60;99.90;;;;;;5113147;28;20575;-68
2022/10/16 03:50:57;;;;;;;6.87;6.27;;;12.50;99.90;;;;;;5110226;28;20460;-69
2022/10/16 03:53:23;;;;;;;7.70;6.80;;;12.40;99.90;;;;;;5105318;28;20462;-67
2022/10/16 03:55:51;;;;;;;7.20;6.70;;;12.30;99.90;;;;;;5109424;28;20469;-68
2022/10/16 03:58:19;;;;;;;6.97;6.53;;;12.30;99.90;;;;;;5114238;28;20543;-69
2022/10/16 04:00:47;;;;;;;7.23;6.73;;;12.20;99.90;;;;;;5107281;28;20461;-68
2022/10/16 04:03:14;;;;;;;6.40;5.73;;;12.20;99.90;;;;;;5107843;28;20456;-70
2022/10/16 04:05:41;;;;;;;6.77;6.30;;;12.10;99.90;;;;;;5108130;27;20830;-70
2022/10/16 04:08:08;;;;;;;7.30;6.80;;;12.00;99.90;;;;;;5104179;27;20477;-70
2022/10/16 04:10:36;;;;;;;7.20;6.80;;;11.90;99.90;;;;;;5105429;27;20464;-71
2022/10/16 04:13:04;;;;;;;7.03;6.50;;;11.90;99.90;;;;;;5107111;27;20468;-69
2022/10/16 04:15:31;;;;;;;7.97;6.90;;;11.90;99.90;;;;;;5107872;27;20456;-70
2022/10/16 04:17:59;;;;;;;9.30;6.23;;;11.90;99.90;;;;;;5107870;27;20468;-71
2022/10/16 04:20:25;;;;;;;6.97;6.50;;;11.90;99.90;;;;;;5115488;27;21110;-72
2022/10/16 04:22:52;;;;;;;6.50;6.03;;;11.90;99.90;;;;;;5114354;27;20488;-71
2022/10/16 04:25:19;;;;;;;6.73;6.10;;;11.90;99.90;;;;;;5115839;27;20457;-70
2022/10/16 04:27:46;;;;;;;7.07;6.37;;;11.80;99.90;;;;;;5112393;27;20495;-71
2022/10/16 04:30:15;;;;;;;6.37;5.77;;;11.80;99.90;;;;;;5106257;27;20453;-71
2022/10/16 04:32:41;;;;;;;7.30;6.67;;;11.70;99.90;;;;;;5107389;27;20589;-71
2022/10/16 04:35:09;;;;;;;9.63;7.10;;;11.70;99.90;;;;;;5113135;27;20960;-70
2022/10/16 04:37:37;;;;;;;11.50;7.17;;;11.70;99.90;;;;;;5110144;27;20574;-71
2022/10/16 04:40:05;;;;;;;9.83;6.30;;;11.60;99.90;;;;;;5104224;27;20483;-70
2022/10/16 04:42:31;;;;;;;7.80;7.13;;;11.70;99.90;;;;;;5112512;27;20498;-69
2022/10/16 04:44:58;;;;;;;7.20;6.60;;;11.60;99.90;;;;;;5116175;27;20464;-70
2022/10/16 04:47:26;;;;;;;7.73;7.03;;;11.70;99.90;;;;;;5115193;27;20998;-70
2022/10/16 04:49:53;;;;;;;8.00;7.17;;;11.70;99.90;;;;;;5108264;27;21057;-72
2022/10/16 04:52:24;;;;;;;7.33;6.53;;;11.70;99.90;;;;;;5101082;27;20472;-71
2022/10/16 04:54:51;;;;;;;7.23;6.33;;;11.80;99.90;;;;;;5111074;27;20454;-70
2022/10/16 04:57:17;;;;;;;7.87;7.00;;;11.70;99.90;;;;;;5113322;27;20461;-71
2022/10/16 04:59:46;;;;;;;7.17;6.30;;;11.70;99.90;;;;;;5112166;27;20461;-70
2022/10/16 05:02:12;;;;;;;7.93;6.77;;;11.60;99.90;;;;;;5114844;27;20478;-71
2022/10/16 05:04:41;;;;;;;7.53;7.00;;;11.70;99.90;;;;;;5111488;27;21179;-70
2022/10/16 05:07:08;;;;;;;7.60;7.00;;;11.60;99.90;;;;;;5110002;27;20547;-71
2022/10/16 05:09:35;;;;;;;7.93;7.00;;;11.60;99.90;;;;;;5111614;27;20812;-70
2022/10/16 05:12:03;;;;;;;8.97;7.60;;;11.70;99.90;;;;;;5111708;27;20971;-70
2022/10/16 05:14:31;;;;;;;9.20;7.33;;;11.70;99.90;;;;;;5111829;27;20460;-70
2022/10/16 05:16:58;;;;;;;7.70;7.20;;;11.70;99.90;;;;;;5113872;27;20504;-70
2022/10/16 05:19:25;;;;;;;8.40;7.13;;;11.70;99.90;;;;;;5107638;27;20467;-70
2022/10/16 05:21:53;;;;;;;8.20;7.00;;;11.70;99.90;;;;;;5109932;27;20453;-70
2022/10/16 05:24:20;;;;;;;6.57;5.97;;;11.70;99.90;;;;;;5103683;27;20944;-70
2022/10/16 05:26:47;;;;;;;6.43;6.03;;;11.70;99.90;;;;;;5109015;27;20468;-71
2022/10/16 05:29:14;;;;;;;7.03;6.60;;;11.80;99.90;;;;;;5110282;27;20854;-69
2022/10/16 05:31:41;;;;;;;8.70;6.80;;;11.80;99.90;;;;;;5106948;27;20453;-70
2022/10/16 05:34:08;;;;;;;10.53;7.13;;;11.80;99.90;;;;;;5108846;27;20460;-71
2022/10/16 05:36:35;;;;;;;7.57;6.80;;;11.80;99.90;;;;;;5113645;27;20461;-70
2022/10/16 05:39:03;;;;;;;13.07;6.60;;;11.90;99.90;;;;;;5108639;27;21001;-70
2022/10/16 05:41:31;;;;;;;13.93;7.97;;;12.00;99.90;;;;;;5111250;27;20909;-69
2022/10/16 05:43:58;;;;;;;7.53;6.80;;;12.00;99.90;;;;;;5106553;27;20555;-70
2022/10/16 05:46:25;;;;;;;11.93;7.73;;;12.00;99.90;;;;;;5109991;27;20832;-70
2022/10/16 05:48:54;;;;;;;10.00;8.00;;;12.00;99.90;;;;;;5113314;27;20504;-70
2022/10/16 05:51:21;;;;;;;9.33;7.00;;;11.90;99.90;;;;;;5113177;27;20476;-70
2022/10/16 05:53:48;;;;;;;9.40;7.57;;;12.00;99.90;;;;;;5109352;27;20833;-69
2022/10/16 05:56:16;;;;;;;12.83;8.53;;;12.00;99.90;;;;;;5109491;27;20592;-69
2022/10/16 05:58:44;;;;;;;7.77;7.17;;;11.90;99.90;;;;;;5111188;27;20461;-67
2022/10/16 06:01:13;;;;;;;12.30;7.37;;;11.90;99.90;;;;;;5111440;27;20545;-68
2022/10/16 06:03:40;;;;;;;8.53;7.73;;;11.80;99.90;;;;;;5113057;27;20503;-67
2022/10/16 06:06:12;;;;;;;7.67;7.10;;;11.80;99.90;;;;;;5107201;27;20466;-69
2022/10/16 06:08:39;;;;;;;8.13;7.47;;;11.80;99.90;;;;;;5106866;27;20970;-67
2022/10/16 06:11:08;;;;;;;13.90;8.50;;;11.80;99.90;;;;;;5106651;27;20444;-67
2022/10/16 06:13:36;;;;;;;8.30;7.70;;;11.80;99.90;;;;;;5105999;27;20468;-68
2022/10/16 06:16:04;;;;;;;10.90;7.50;;;11.70;99.90;;;;;;5114402;27;20453;-67
2022/10/16 06:18:31;;;;;;;10.33;7.53;;;11.80;99.90;;;;;;5109937;27;20468;-67
2022/10/16 06:20:58;;;;;;;8.37;7.47;;;11.90;99.90;;;;;;5108582;27;20465;-67
2022/10/16 06:23:26;;;;;;;12.13;7.50;;;12.00;99.90;;;;;;5109880;27;20476;-67
2022/10/16 06:25:52;;;;;;;8.40;7.70;;;12.00;99.90;;;;;;5114159;27;20606;-67
2022/10/16 06:28:19;;;;;;;8.60;7.90;;;12.00;99.90;;;;;;5105433;27;20495;-67
2022/10/16 06:30:47;;;;;;;9.03;7.70;;;12.00;99.90;;;;;;5107092;27;20511;-69
2022/10/16 06:33:14;;;;;;;8.03;7.43;;;12.00;99.90;;;;;;5111076;27;20468;-69
2022/10/16 06:35:41;;;;;;;10.23;7.77;;;12.00;99.90;;;;;;5111605;27;20538;-67
2022/10/16 06:38:08;;;;;;;9.00;8.30;;;12.10;99.90;;;;;;5102942;28;20956;-66
2022/10/16 06:40:34;;;;;;;8.50;7.80;;;12.20;99.90;;;;;;5105311;27;20822;-67
2022/10/16 06:43:01;;;;;;;7.83;7.23;;;12.30;99.90;;;;;;5104607;28;20464;-67
2022/10/16 06:45:28;;;;;;;10.30;7.53;;;12.30;99.90;;;;;;5113913;28;20453;-68
2022/10/16 06:47:56;;;;;;;10.20;8.27;;;12.40;99.90;;;;;;5106518;28;20987;-67
2022/10/16 06:50:23;;;;;;;8.23;7.50;;;12.40;99.90;;;;;;5106973;28;20861;-66
2022/10/16 06:52:50;;;;;;;8.00;7.40;;;12.50;99.90;;;;;;5113938;27;20467;-67
2022/10/16 06:55:18;;;;;;;8.70;7.90;;;12.50;99.90;;;;;;5108677;28;20551;-68
2022/10/16 06:57:47;;;;;;;10.90;8.00;;;12.50;99.90;;;;;;5108814;28;20489;-67
2022/10/16 07:00:14;;;;;;;8.10;7.60;;;12.50;99.90;;;;;;5110667;28;20457;-66
2022/10/16 07:02:41;;;;;;;8.47;7.93;;;12.50;99.90;;;;;;5113489;28;20945;-67
2022/10/16 07:05:09;;;;;;;7.90;7.40;;;12.50;99.90;;;;;;5110573;28;20457;-67
2022/10/16 07:07:37;;;;;;;7.73;7.27;;;12.40;99.90;;;;;;5115769;28;20460;-71
2022/10/16 07:10:04;;;;;;;8.13;7.30;;;12.40;99.90;;;;;;5107623;28;20533;-69
2022/10/16 07:12:31;;;;;;;6.77;6.27;;;12.50;99.90;;;;;;5108497;28;21264;-69
2022/10/16 07:14:58;;;;;;;7.73;7.03;;;12.50;99.90;;;;;;5106719;28;20469;-70
2022/10/16 07:17:25;;;;;;;6.10;5.80;;;12.60;99.90;;;;;;5105283;28;20555;-69
2022/10/16 07:19:53;;;;;;;5.70;5.30;;;12.80;99.90;;;;;;5107762;28;20970;-70
2022/10/16 07:22:21;;;;;;;6.30;5.80;;;12.80;99.90;;;;;;5103327;28;20510;-70
2022/10/16 07:24:48;;;;;;;6.50;6.00;;;12.90;99.90;;;;;;5109854;28;20460;-69
2022/10/16 07:27:16;;;;;;;9.10;6.57;;;13.00;99.90;;;;;;5104434;28;20485;-70
2022/10/16 07:29:43;;;;;;;5.97;5.53;;;13.00;99.90;;;;;;5107716;28;20542;-72
2022/10/16 07:32:10;;;;;;;6.23;5.80;;;13.00;99.90;;;;;;5102613;28;20889;-71
2022/10/16 07:34:36;;;;;;;5.30;5.10;;;13.00;99.90;;;;;;5105229;28;20457;-70
2022/10/16 07:37:03;;;;;;;6.30;5.80;;;13.10;99.90;;;;;;5101752;28;20468;-70
2022/10/16 07:39:31;;;;;;;6.73;5.50;;;13.10;99.90;;;;;;5108175;27;20731;-70
2022/10/16 07:41:58;;;;;;;5.63;5.23;;;13.20;99.90;;;;;;5114049;27;20529;-71
2022/10/16 07:44:25;;;;;;;5.87;5.40;;;13.30;99.90;;;;;;5113546;27;20494;-70
2022/10/16 07:46:52;;;;;;;6.73;6.10;;;13.30;99.90;;;;;;5117657;27;20453;-70
2022/10/16 07:49:20;;;;;;;5.17;4.77;;;13.40;99.90;;;;;;5109275;27;20492;-70
2022/10/16 07:51:47;;;;;;;6.83;5.70;;;13.50;99.90;;;;;;5109928;27;20449;-70
2022/10/16 07:54:14;;;;;;;5.63;5.23;;;13.60;99.90;;;;;;5113894;27;20467;-70
2022/10/16 07:56:43;;;;;;;5.90;5.47;;;13.70;99.90;;;;;;5110310;27;20762;-71
2022/10/16 07:59:09;;;;;;;5.10;4.87;;;13.70;99.90;;;;;;5110756;27;20457;-70
2022/10/16 08:01:36;;;;;;;5.47;5.07;;;13.80;99.90;;;;;;5110730;27;20994;-71
2022/10/16 08:04:03;;;;;;;5.73;5.33;;;13.90;99.90;;;;;;5111526;27;20833;-69
2022/10/16 08:06:30;;;;;;;7.43;4.83;;;14.00;99.90;;;;;;5110199;27;20466;-71
2022/10/16 08:08:57;;;;;;;5.53;4.90;;;14.10;99.90;;;;;;5106253;27;20561;-71
2022/10/16 08:11:24;;;;;;;5.63;5.07;;;14.20;99.90;;;;;;5103959;27;20469;-70
2022/10/16 08:13:52;;;;;;;4.90;4.60;;;14.30;99.90;;;;;;5110546;27;20877;-69
2022/10/16 08:16:19;;;;;;;12.23;9.17;;;14.40;99.90;;;;;;5110575;27;20786;-69
2022/10/16 08:18:46;;;;;;;7.83;5.20;;;14.50;99.90;;;;;;5116713;27;20839;-69
2022/10/16 08:21:15;;;;;;;5.37;4.87;;;14.60;99.90;;;;;;5108638;27;20465;-69
2022/10/16 08:23:44;;;;;;;4.60;4.40;;;14.70;99.90;;;;;;5112155;27;20492;-68
2022/10/16 08:26:11;;;;;;;6.27;4.87;;;14.80;99.90;;;;;;5110499;27;20465;-69
2022/10/16 08:28:38;;;;;;;5.07;4.67;;;14.90;99.90;;;;;;5111753;27;20501;-70
2022/10/16 08:31:09;;;;;;;5.20;4.13;;;15.00;99.90;;;;;;5108133;27;21236;-69
2022/10/16 08:33:36;;;;;;;6.00;5.03;;;15.10;99.90;;;;;;5113246;27;21024;-68
2022/10/16 08:36:05;;;;;;;4.87;4.43;;;15.20;99.90;;;;;;5113598;27;20461;-70
2022/10/16 08:38:32;;;;;;;5.17;4.70;;;15.20;99.90;;;;;;5110703;27;20814;-67
2022/10/16 08:41:14;;;;;;;8.10;4.33;;;15.30;99.90;;;;;;5112198;27;20463;-68
2022/10/16 08:43:55;;;;;;;5.27;4.90;;;15.40;99.90;;;;;;5101703;27;20484;-68
2022/10/16 08:46:40;;;;;;;6.33;5.47;;;15.50;99.90;;;;;;5106921;27;20452;-68
2022/10/16 08:49:13;;;;;;;6.97;6.00;;;15.50;99.90;;;;;;5113605;27;20484;-70
2022/10/16 08:51:40;;;;;;;5.57;5.00;;;15.60;99.90;;;;;;5100078;27;20556;-70
2022/10/16 08:54:23;;;;;;;6.03;5.40;;;15.60;99.90;;;;;;5104164;27;20578;-70
2022/10/16 08:56:50;;;;;;;7.37;6.53;;;15.80;99.90;;;;;;5110587;27;20527;-68
2022/10/16 08:59:18;;;;;;;5.80;5.40;;;15.90;99.90;;;;;;5108689;27;20460;-69
2022/10/16 09:01:50;;;;;;;8.83;6.23;;;16.00;99.90;;;;;;5111007;27;20468;-69
2022/10/16 09:04:53;;;;;;;6.77;6.07;;;16.10;99.90;;;;;;5111799;27;20453;-70
2022/10/16 09:07:29;;;;;;;6.60;6.10;;;16.10;99.90;;;;;;5079439;28;20485;-68
2022/10/16 09:10:13;;;;;;;7.07;6.67;;;16.20;99.90;;;;;;5105334;27;21021;-68
2022/10/16 09:12:46;;;;;;;6.83;6.53;;;16.20;99.90;;;;;;5111191;27;20533;-70
2022/10/16 09:15:24;;;;;;;7.60;6.90;;;16.30;99.90;;;;;;5102876;27;20890;-68
2022/10/16 09:17:58;;;;;;;6.80;6.10;;;16.40;99.90;;;;;;5109257;27;20465;-67
2022/10/16 09:20:33;;;;;;;6.27;6.00;;;16.40;99.90;;;;;;5107122;27;20461;-70
2022/10/16 09:23:13;;;;;;;8.63;6.90;;;16.50;99.90;;;;;;5104121;27;20484;-68
2022/10/16 09:25:40;;;;;;;8.37;7.87;;;16.50;99.90;;;;;;5102110;27;20628;-70
2022/10/16 09:28:09;;;;;;;7.80;7.40;;;16.60;99.90;;;;;;5104434;27;20473;-67
2022/10/16 09:30:35;;;;;;;8.10;7.60;;;16.70;99.90;;;;;;5104565;27;20871;-68
2022/10/16 09:33:05;;;;;;;8.43;7.73;;;16.80;99.90;;;;;;5106246;27;20964;-68
2022/10/16 09:35:36;;;;;;;7.97;7.57;;;16.80;99.90;;;;;;5105539;27;20940;-69
2022/10/16 09:38:03;;;;;;;8.00;7.70;;;16.90;99.90;;;;;;5111713;27;20456;-68
2022/10/16 09:40:32;;;;;;;8.37;7.97;;;17.00;99.90;;;;;;5103447;27;20948;-70
2022/10/16 09:43:07;;;;;;;8.40;8.00;;;17.00;99.90;;;;;;5107493;27;20460;-69
2022/10/16 09:45:35;;;;;;;9.07;8.27;;;17.00;99.90;;;;;;5106464;27;20486;-69
2022/10/16 09:48:12;;;;;;;9.20;8.70;;;17.10;99.90;;;;;;5112138;27;20551;-70
2022/10/16 09:50:39;;;;;;;8.73;8.33;;;17.20;99.90;;;;;;5110326;27;20492;-69
2022/10/16 09:53:11;;;;;;;9.30;8.53;;;17.10;99.90;;;;;;5111197;27;20456;-69
2022/10/16 09:55:48;;;;;;;9.93;9.23;;;17.10;99.90;;;;;;5107615;27;20515;-68
2022/10/16 09:58:15;;;;;;;9.73;9.07;;;17.30;99.90;;;;;;5114229;27;20456;-70
2022/10/16 10:00:49;;;;;;;11.17;10.27;;;17.60;99.90;;;;;;5107646;27;21156;-69
2022/10/16 10:03:33;;;;;;;10.60;9.90;;;17.90;99.90;;;;;;5106400;27;20805;-68
2022/10/16 10:06:01;;;;;;;10.10;9.50;;;18.40;99.90;;;;;;5105108;28;20887;-69
2022/10/16 10:08:28;;;;;;;10.60;10.00;;;18.80;99.90;;;;;;5107664;27;20874;-68
2022/10/16 10:10:55;;;;;;;10.83;10.27;;;18.70;99.90;;;;;;5112637;27;20547;-68
2022/10/16 10:13:25;;;;;;;10.90;10.20;;;18.50;99.90;;;;;;5107718;27;20471;-70
2022/10/16 10:15:53;;;;;;;10.70;10.10;;;18.40;99.90;;;;;;5108583;27;20471;-69
2022/10/16 10:18:23;;;;;;;9.70;9.20;;;18.10;99.90;;;;;;5112556;27;20468;-69
2022/10/16 10:20:59;;;;;;;9.90;9.50;;;17.90;99.90;;;;;;5106807;27;20556;-69
2022/10/16 10:23:28;;;;;;;9.87;9.47;;;17.80;99.90;;;;;;5105893;27;20473;-69
2022/10/16 10:26:02;;;;;;;9.37;8.87;;;17.90;99.90;;;;;;5107511;27;20964;-68
2022/10/16 10:28:47;;;;;;;10.37;9.87;;;18.50;99.90;;;;;;5105035;27;20480;-69
2022/10/16 10:31:18;;;;;;;10.10;9.47;;;19.00;99.90;;;;;;5087058;27;20488;-71
2022/10/16 10:33:50;;;;;;;9.83;9.33;;;19.00;99.90;;;;;;5109239;27;20452;-69
2022/10/16 10:36:27;;;;;;;10.20;9.60;;;19.10;99.90;;;;;;5109268;27;20971;-69
2022/10/16 10:38:58;;;;;;;10.20;9.73;;;19.70;99.90;;;;;;5107391;27;20472;-71
2022/10/16 10:42:02;;;;;;;10.17;9.67;;;20.50;99.90;;;;;;5106148;27;20461;-69
2022/10/16 10:44:51;;;;;;;10.90;10.10;;;20.50;99.90;;;;;;5095251;27;20787;-68
2022/10/16 10:47:33;;;;;;;10.03;9.53;;;20.50;99.90;;;;;;5102201;28;20465;-69
2022/10/16 10:50:09;;;;;;;10.53;9.90;;;20.50;99.90;;;;;;5104760;27;20492;-70
2022/10/16 10:52:50;;;;;;;10.40;9.80;;;20.80;99.90;;;;;;5105020;28;20463;-68
2022/10/16 10:55:25;;;;;;;10.83;10.07;;;21.20;99.90;;;;;;5109016;28;20456;-71
2022/10/16 10:58:17;;;;;;;9.87;9.40;;;22.10;99.90;;;;;;5107224;27;20467;-70
2022/10/16 11:00:56;;;;;;;11.27;10.23;;;22.90;99.90;;;;;;5101854;28;20548;-69
2022/10/16 11:03:35;;;;;;;11.00;10.40;;;22.70;99.90;;;;;;5106727;28;20457;-70
2022/10/16 11:06:09;;;;;;;11.27;10.57;;;22.50;99.90;;;;;;5113195;28;20540;-70
2022/10/16 11:08:40;;;;;;;11.60;10.97;;;22.70;99.90;;;;;;5112217;28;20462;-69
2022/10/16 11:11:11;;;;;;;11.27;10.43;;;23.10;99.90;;;;;;5110743;28;20485;-70
2022/10/16 11:13:46;;;;;;;11.80;11.00;;;23.30;99.90;;;;;;5112857;27;20456;-72
2022/10/16 11:16:19;;;;;;;11.27;10.77;;;22.90;99.90;;;;;;5114887;27;20464;-70
2022/10/16 11:18:53;;;;;;;11.90;11.40;;;22.80;99.90;;;;;;5117208;27;20461;-71
2022/10/16 11:21:23;;;;;;;11.67;10.93;;;23.60;99.90;;;;;;5113735;27;20852;-70
2022/10/16 11:23:56;;;;;;;11.77;10.90;;;23.60;99.90;;;;;;5111722;27;20480;-69
2022/10/16 11:26:28;;;;;;;11.80;11.10;;;23.30;99.90;;;;;;5114853;27;20467;-69
2022/10/16 11:28:58;;;;;;;11.63;11.13;;;23.40;99.90;;;;;;5113068;27;20496;-69
2022/10/16 11:31:31;;;;;;;11.97;11.47;;;23.40;99.90;;;;;;5111418;27;20508;-69
2022/10/16 11:34:05;;;;;;;11.57;10.60;;;22.80;99.90;;;;;;5110470;27;20460;-69
2022/10/16 11:36:38;;;;;;;10.90;10.40;;;22.50;99.90;;;;;;5109622;27;20453;-69
2022/10/16 11:39:15;;;;;;;10.80;10.00;;;22.60;99.90;;;;;;5108019;27;20495;-69
2022/10/16 11:41:48;;;;;;;11.43;10.83;;;22.90;99.90;;;;;;5112120;27;21010;-70
2022/10/16 11:44:28;;;;;;;10.70;10.30;;;23.10;99.90;;;;;;5111120;27;20461;-69
2022/10/16 11:47:12;;;;;;;11.00;10.10;;;23.10;99.90;;;;;;5107523;27;20953;-69
2022/10/16 11:49:43;;;;;;;11.10;10.40;;;23.50;99.90;;;;;;5114039;27;20480;-69
2022/10/16 11:52:17;;;;;;;10.63;10.03;;;23.80;99.90;;;;;;5109306;27;20970;-68
2022/10/16 11:54:48;;;;;;;11.80;11.20;;;24.00;99.90;;;;;;5110220;27;20459;-69
2022/10/16 11:57:20;;;;;;;12.10;11.30;;;24.40;99.90;;;;;;5112272;27;20974;-69
2022/10/16 11:59:50;;;;;;;12.03;11.17;;;23.60;99.90;;;;;;5110374;27;20947;-68
2022/10/16 12:02:35;;;;;;;11.37;10.87;;;23.30;99.90;;;;;;5114750;27;20550;-68
2022/10/16 12:05:15;;;;;;;12.87;12.17;;;23.50;99.90;;;;;;5113005;27;20967;-68
2022/10/16 12:07:51;;;;;;;11.57;10.87;;;22.80;99.90;;;;;;5112650;27;20465;-71
2022/10/16 12:10:22;;;;;;;11.17;10.50;;;23.10;99.90;;;;;;5112977;27;20499;-69
2022/10/16 12:12:49;;;;;;;11.37;10.77;;;23.80;99.90;;;;;;5104274;27;20465;-69
2022/10/16 12:15:24;;;;;;;12.13;11.50;;;24.30;99.90;;;;;;5109541;28;20464;-70
2022/10/16 12:17:52;;;;;;;11.93;11.43;;;24.60;99.90;;;;;;5110268;27;20468;-68
2022/10/16 12:20:23;;;;;;;12.00;11.40;;;24.40;99.90;;;;;;5113220;27;20544;-70
2022/10/16 12:22:55;;;;;;;11.33;10.63;;;24.40;99.90;;;;;;5110656;27;21015;-69
2022/10/16 12:25:24;;;;;;;11.30;10.60;;;24.90;99.90;;;;;;5109188;27;20471;-70
2022/10/16 12:28:18;;;;;;;12.00;11.40;;;25.30;99.90;;;;;;5104988;27;20511;-70
2022/10/16 12:30:54;;;;;;;13.00;12.33;;;25.80;99.90;;;;;;5103593;27;20689;-69
2022/10/16 12:33:24;;;;;;;12.47;11.97;;;25.30;99.90;;;;;;5109585;27;20461;-71
2022/10/16 12:35:52;;;;;;;12.13;11.60;;;24.40;99.90;;;;;;5109324;27;20557;-70
2022/10/16 12:38:22;;;;;;;11.17;10.60;;;24.30;99.90;;;;;;5110062;27;20460;-70
2022/10/16 12:40:58;;;;;;;12.93;12.07;;;24.40;99.90;;;;;;5110588;27;20960;-69
2022/10/16 12:43:37;;;;;;;12.07;11.47;;;24.50;99.90;;;;;;5112860;27;20457;-70
2022/10/16 12:46:21;;;;;;;12.33;11.73;;;24.50;99.90;;;;;;5106352;27;20565;-71
2022/10/16 12:48:48;;;;;;;12.97;12.30;;;24.30;99.90;;;;;;5115710;27;20457;-70
2022/10/16 12:51:24;;;;;;;12.50;11.90;;;24.10;99.90;;;;;;5108883;27;20497;-69
2022/10/16 12:54:01;;;;;;;12.60;12.07;;;23.90;99.90;;;;;;5108485;27;20460;-70
2022/10/16 12:56:39;;;;;;;12.43;11.80;;;24.30;99.90;;;;;;5110701;27;20860;-69
2022/10/16 12:59:14;;;;;;;12.27;11.40;;;24.40;99.90;;;;;;5103520;27;20997;-71
2022/10/16 13:01:56;;;;;;;11.30;10.80;;;25.30;99.90;;;;;;5109165;27;20460;-72